CheckWX is a tool to help pilots better visualize weather data.  It is not intended as a substitute for an official pre-flight weather briefing.

15:41:16 UTC

KGED METAR
Delaware Coastal Airport
Georgetown, Delaware, USA
Current

47 mins ago

KGED 221454Z AUTO 23011G16KT 10SM FEW048 FEW075 BKN110 13/06 A2984 RMK AO2 SLP105 T01330061 56024
Observed
Nov-22 @ 14:54 UTC
Wind
  • 230° at 11 KTS
  • Gusting to 16 KTS
Visibility
10 SM
Flight Rules
VFR
Cloud Levels
  • Few at 4,800' AGL
  • Few at 7,500' AGL
  • Broken at 11,000' AGL
Temperature
13°C / 55°F
Dewpoint
C / 43°F
Humidity
63%
Altimeter
29.84" Hg
Pressure
1010.52 hPa
Previous

2 hours ago

KGED 221354Z AUTO 23011G17KT 10SM OVC110 12/06 A2987 RMK AO2 SLP114 T01220061
Observed
Nov-22 @ 13:54 UTC
Wind
  • 230° at 11 KTS
  • Gusting to 17 KTS
Visibility
10 SM
Flight Rules
VFR
Cloud Levels
  • Overcast at 11,000' AGL
Temperature
12°C / 54°F
Dewpoint
C / 43°F
Humidity
67%
Altimeter
29.87" Hg
Pressure
1011.52 hPa
Previous

3 hours ago

KGED 221254Z AUTO 21011KT 10SM OVC080 11/06 A2989 RMK AO2 SLP120 T01110056
Observed
Nov-22 @ 12:54 UTC
Wind
  • 210° at 11 KTS
Visibility
10 SM
Flight Rules
VFR
Cloud Levels
  • Overcast at 8,000' AGL
Temperature
11°C / 52°F
Dewpoint
C / 43°F
Humidity
72%
Altimeter
29.89" Hg
Pressure
1012.22 hPa